Decoded Metar for UWKD (KAZAN in RUSSIA) (IATA:KZN) | Meteo·Mobile Aviation Weather
aviador You're here:

UWKD Decoded Metar

KAZAN in RUSSIA
Report Time2019-07-23 03:30:00
UTC Time2019-07-23 03:59:09
Flight Rules mvfr MVFR
Wind290° at 8 kt
W.Decomp.*RWY 29: 7.8 kt HW 1.7 kt LCW
Visibility9999 m
Phenomena:N/A
Clouds:Overcast 010 Hf
Expected CloudBase > 1,200 ft AGL from Temp-Dew spread
Ceiling1,000 ft
Temp16°C (ISA +2)
Dew Point13°C (83% RH)
AAT14.1°C
QNH1012 hPa
Density Alt863 ft
Elevation413 ft
Report Wrong Elevation
Raw Report
UWKD 230330Z 29004MPS 9999 OVC010 16/13 Q1012 R29/CLRD70 NOSIG RMK
QFE748/0997=

Extra information for UWKD:More info

Metar Taf Metar & Taf Last 4 Metars F.Rules Stats Wind Profile Meteogram Temp Stats Airport Information Weather charts Add Link Nearby VenuesMetar ALERT Operation Metar Decoded Social comments